createdAt,value
2022-12-01T00:00:17.138Z,25.47
2022-12-01T00:02:45.603Z,26.10
2022-12-01T00:05:14.027Z,26.47
2022-12-01T00:07:43.904Z,27.67
2022-12-01T00:10:27.434Z,26.57
2022-12-01T00:12:56.275Z,26.63
2022-12-01T00:15:25.040Z,26.77
2022-12-01T00:17:53.462Z,26.83
2022-12-01T00:20:21.797Z,28.00
2022-12-01T00:22:51.594Z,26.40
2022-12-01T00:25:20.256Z,28.10
2022-12-01T00:27:49.995Z,26.27
2022-12-01T00:30:18.427Z,28.00
2022-12-01T00:32:46.879Z,26.60
2022-12-01T00:35:15.216Z,27.13
2022-12-01T00:37:46.719Z,27.80
2022-12-01T00:40:16.829Z,27.80
2022-12-01T00:42:45.216Z,28.87
2022-12-01T00:45:13.690Z,28.10
2022-12-01T00:47:42.169Z,28.43
2022-12-01T00:50:11.080Z,30.30
2022-12-01T00:52:39.585Z,29.17
2022-12-01T00:55:08.675Z,29.17
2022-12-01T00:57:38.560Z,29.37
2022-12-01T01:00:07.455Z,29.70
2022-12-01T01:02:36.068Z,31.70
2022-12-01T01:05:04.537Z,29.27
2022-12-01T01:07:33.059Z,29.40
2022-12-01T01:10:01.531Z,29.17
2022-12-01T01:12:29.918Z,30.87
2022-12-01T01:14:59.808Z,30.03
2022-12-01T01:17:28.217Z,29.87
2022-12-01T01:19:56.652Z,30.80
2022-12-01T01:22:25.013Z,30.50
2022-12-01T01:24:53.398Z,31.13
2022-12-01T01:27:21.788Z,30.00
2022-12-01T01:29:50.371Z,29.73
2022-12-01T01:32:20.287Z,31.33
2022-12-01T01:34:48.704Z,30.57
2022-12-01T01:37:17.132Z,31.37
2022-12-01T01:39:45.661Z,31.37
2022-12-01T01:42:14.878Z,32.07
2022-12-01T01:44:50.406Z,30.93
2022-12-01T01:47:21.471Z,32.67
2022-12-01T01:49:50.261Z,31.53
2022-12-01T01:52:18.842Z,33.30
2022-12-01T01:54:49.567Z,31.17
2022-12-01T01:57:19.025Z,32.87
2022-12-01T01:59:47.997Z,33.57
2022-12-01T02:02:17.010Z,33.07
2022-12-01T02:04:47.977Z,33.73
2022-12-01T02:07:17.516Z,32.80
2022-12-01T02:09:46.149Z,34.53
2022-12-01T02:12:17.650Z,33.53
2022-12-01T02:14:57.449Z,33.27
2022-12-01T02:17:28.850Z,32.90
2022-12-01T02:20:09.646Z,32.40
2022-12-01T02:22:40.070Z,33.63
2022-12-01T02:25:22.659Z,32.87
2022-12-01T02:28:02.611Z,34.23
2022-12-01T02:30:38.253Z,33.73
2022-12-01T02:33:07.666Z,32.47
2022-12-01T02:35:37.632Z,34.13
2022-12-01T02:38:10.015Z,32.03
2022-12-01T02:40:40.503Z,34.03
2022-12-01T02:43:09.861Z,32.47
2022-12-01T02:45:41.630Z,31.43
2022-12-01T02:48:11.071Z,33.27
2022-12-01T02:50:39.694Z,32.50
2022-12-01T02:53:08.363Z,32.77
2022-12-01T02:55:36.940Z,34.27
2022-12-01T02:58:14.353Z,33.07
2022-12-01T03:00:44.184Z,33.53
2022-12-01T03:03:20.486Z,33.27
2022-12-01T03:05:50.684Z,32.70
2022-12-01T03:08:21.639Z,32.70
2022-12-01T03:10:50.602Z,32.30
2022-12-01T03:13:20.885Z,35.03
2022-12-01T03:15:54.292Z,34.00
2022-12-01T03:18:26.228Z,33.50
2022-12-01T03:20:56.413Z,32.87
2022-12-01T03:23:25.565Z,34.03
2022-12-01T03:25:54.292Z,32.87
2022-12-01T03:28:24.077Z,33.30
2022-12-01T03:30:54.330Z,34.20
2022-12-01T03:33:26.016Z,33.60
2022-12-01T03:35:55.368Z,32.80
2022-12-01T03:38:24.570Z,32.57
2022-12-01T03:40:53.147Z,32.27
2022-12-01T03:43:25.033Z,33.33
2022-12-01T03:45:57.009Z,31.90
2022-12-01T03:48:28.358Z,34.83
2022-12-01T03:50:59.244Z,33.23
2022-12-01T03:53:28.054Z,33.87
2022-12-01T03:55:59.421Z,33.07
2022-12-01T03:58:28.813Z,32.87
2022-12-01T04:00:59.261Z,34.90
2022-12-01T04:03:30.902Z,33.23
2022-12-01T04:05:59.404Z,33.57
2022-12-01T04:08:31.343Z,34.50
2022-12-01T04:10:59.658Z,34.17
2022-12-01T04:13:27.053Z,33.23
2022-12-01T04:15:55.709Z,32.37
2022-12-01T04:18:26.020Z,33.17
2022-12-01T04:20:54.672Z,31.70
2022-12-01T04:23:43.947Z,33.83
2022-12-01T04:26:15.699Z,33.77
2022-12-01T04:28:45.078Z,33.17
2022-12-01T04:31:13.827Z,32.20
2022-12-01T04:33:43.634Z,33.10
2022-12-01T04:36:12.395Z,34.67
2022-12-01T04:38:41.044Z,33.93
2022-12-01T04:41:15.432Z,31.87
2022-12-01T04:43:43.863Z,33.00
2022-12-01T04:46:12.551Z,33.47
2022-12-01T04:48:41.019Z,35.57
2022-12-01T04:51:10.998Z,34.70
2022-12-01T04:53:39.552Z,35.90
2022-12-01T04:56:13.982Z,34.57
2022-12-01T04:58:42.523Z,35.00
2022-12-01T05:01:11.685Z,35.07
2022-12-01T05:03:40.327Z,33.00
2022-12-01T05:06:09.492Z,34.50
2022-12-01T05:08:39.321Z,33.37
2022-12-01T05:11:08.204Z,32.50
2022-12-01T05:13:36.678Z,32.80
2022-12-01T05:16:09.054Z,32.73
2022-12-01T05:18:37.569Z,33.77
2022-12-01T05:21:05.250Z,31.93
2022-12-01T05:23:34.240Z,32.23
2022-12-01T05:26:04.291Z,32.23
2022-12-01T05:28:32.866Z,32.60
2022-12-01T05:31:01.439Z,35.00
2022-12-01T05:33:30.083Z,33.33
2022-12-01T05:35:58.599Z,32.50
2022-12-01T05:38:27.018Z,33.63
2022-12-01T05:40:55.772Z,33.47
2022-12-01T05:43:29.289Z,33.07
2022-12-01T05:45:58.379Z,32.20
2022-12-01T05:48:26.833Z,33.47
2022-12-01T05:50:55.531Z,32.33
2022-12-01T05:53:24.018Z,33.07
2022-12-01T05:55:58.242Z,32.90
2022-12-01T05:58:28.276Z,33.43
2022-12-01T06:00:56.949Z,32.77
2022-12-01T06:03:25.419Z,33.80
2022-12-01T06:05:53.747Z,33.03
2022-12-01T06:08:22.305Z,32.23
2022-12-01T06:10:50.715Z,33.57
2022-12-01T06:13:19.496Z,34.70
2022-12-01T06:15:57.081Z,33.20
2022-12-01T06:18:25.854Z,33.17
2022-12-01T06:20:54.396Z,32.53
2022-12-01T06:23:27.578Z,34.43
2022-12-01T06:25:58.699Z,33.07
2022-12-01T06:28:27.184Z,34.77
2022-12-01T06:31:02.941Z,34.57
2022-12-01T06:33:32.029Z,33.67
2022-12-01T06:36:00.772Z,35.20
2022-12-01T06:38:29.215Z,34.97
2022-12-01T06:41:03.597Z,33.00
2022-12-01T06:43:33.871Z,35.80
2022-12-01T06:46:06.308Z,34.90
2022-12-01T06:48:35.227Z,35.47
2022-12-01T06:51:10.751Z,34.93
2022-12-01T06:53:47.021Z,35.50
2022-12-01T06:56:16.382Z,34.77
2022-12-01T06:58:45.389Z,36.20
2022-12-01T07:01:15.574Z,36.53
2022-12-01T07:03:44.331Z,35.67
2022-12-01T07:06:12.732Z,35.70
2022-12-01T07:08:41.230Z,35.77
2022-12-01T07:11:09.956Z,34.63
2022-12-01T07:13:38.457Z,35.40
2022-12-01T07:16:07.383Z,34.43
2022-12-01T07:18:38.751Z,34.43
2022-12-01T07:21:09.962Z,35.63
2022-12-01T07:24:10.860Z,35.37
2022-12-01T07:34:13.378Z,34.87
2022-12-01T07:36:54.143Z,36.00
2022-12-01T07:39:41.238Z,34.87
2022-12-01T07:42:10.553Z,35.60
2022-12-01T07:44:42.019Z,34.50
2022-12-01T07:47:10.635Z,34.73
2022-12-01T07:49:39.778Z,37.10
2022-12-01T07:52:09.838Z,35.07
2022-12-01T07:54:38.371Z,34.13
2022-12-01T07:57:17.532Z,36.57
2022-12-01T07:59:46.511Z,34.30
2022-12-01T08:02:15.841Z,35.73
2022-12-01T08:04:44.937Z,34.87
2022-12-01T08:07:15.123Z,35.47
2022-12-01T08:09:46.435Z,35.77
2022-12-01T08:12:15.159Z,34.50
2022-12-01T08:14:44.118Z,36.97
2022-12-01T08:17:12.824Z,35.77
2022-12-01T08:19:44.516Z,33.97
2022-12-01T08:22:12.988Z,35.70
2022-12-01T08:24:43.340Z,35.80
2022-12-01T08:27:11.798Z,34.13
2022-12-01T08:29:42.204Z,35.47
2022-12-01T08:32:10.880Z,36.67
2022-12-01T08:34:39.847Z,35.50
2022-12-01T08:37:10.585Z,35.57
2022-12-01T08:39:39.684Z,35.53
2022-12-01T08:42:10.789Z,36.37
2022-12-01T08:44:42.212Z,33.50
2022-12-01T08:47:13.174Z,34.97
2022-12-01T08:49:46.174Z,34.93
2022-12-01T08:52:15.097Z,34.50
2022-12-01T08:54:43.503Z,33.00
2022-12-01T08:57:13.514Z,35.60
2022-12-01T08:59:42.694Z,35.90
2022-12-01T09:02:12.502Z,35.10
2022-12-01T09:04:41.817Z,34.43
2022-12-01T09:07:15.175Z,36.23
2022-12-01T09:09:43.774Z,37.17
2022-12-01T09:12:16.927Z,35.17
2022-12-01T09:14:48.408Z,34.50
2022-12-01T09:17:17.333Z,34.97
2022-12-01T09:19:46.080Z,34.30
2022-12-01T09:22:16.512Z,34.10
2022-12-01T09:24:45.229Z,35.10
2022-12-01T09:27:14.110Z,37.07
2022-12-01T09:29:44.167Z,34.83
2022-12-01T09:32:12.938Z,36.33
2022-12-01T09:34:41.753Z,35.40
2022-12-01T09:37:10.199Z,34.30
2022-12-01T09:39:41.817Z,38.17
2022-12-01T09:42:12.991Z,36.47
2022-12-01T09:44:41.963Z,35.13
2022-12-01T09:47:13.695Z,36.90
2022-12-01T09:49:48.478Z,36.10
2022-12-01T09:52:18.547Z,36.90
2022-12-01T09:54:47.153Z,35.87
2022-12-01T09:57:17.631Z,35.07
2022-12-01T09:59:46.370Z,35.17
2022-12-01T10:02:28.000Z,36.27
2022-12-01T10:05:02.866Z,35.53
2022-12-01T10:07:32.729Z,35.53
2022-12-01T10:10:01.645Z,35.27
2022-12-01T10:12:31.815Z,36.53
2022-12-01T10:15:05.923Z,33.83
2022-12-01T10:17:38.441Z,37.10
2022-12-01T10:20:08.576Z,34.73
2022-12-01T10:22:45.305Z,35.87
2022-12-01T10:25:16.965Z,36.37
2022-12-01T10:27:50.202Z,34.20
2022-12-01T10:30:33.014Z,34.77
2022-12-01T10:33:04.003Z,34.43
2022-12-01T10:35:40.519Z,34.90
2022-12-01T10:38:14.852Z,34.00
2022-12-01T10:40:43.625Z,34.53
2022-12-01T10:43:12.453Z,33.50
2022-12-01T10:45:42.535Z,35.87
2022-12-01T10:48:16.643Z,35.73
2022-12-01T10:50:48.833Z,35.73
2022-12-01T10:53:31.155Z,34.63
2022-12-01T10:56:01.410Z,35.13
2022-12-01T10:58:29.957Z,34.00
2022-12-01T11:01:00.345Z,34.93
2022-12-01T11:03:32.371Z,36.97
2022-12-01T11:06:03.541Z,33.80
2022-12-01T11:08:36.264Z,36.20
2022-12-01T11:11:16.335Z,34.77
2022-12-01T11:13:44.913Z,34.67
2022-12-01T11:16:13.750Z,35.47
2022-12-01T11:18:43.755Z,35.30
2022-12-01T11:21:15.219Z,34.23
2022-12-01T11:23:47.031Z,34.67
2022-12-01T11:26:16.627Z,36.33
2022-12-01T11:28:53.879Z,34.53
2022-12-01T11:31:25.101Z,34.07
2022-12-01T11:33:58.739Z,34.80
2022-12-01T11:36:28.657Z,32.67
2022-12-01T11:38:57.885Z,33.63
2022-12-01T11:41:29.272Z,36.10
2022-12-01T11:44:02.763Z,35.07
2022-12-01T11:46:33.459Z,34.50
2022-12-01T11:49:06.427Z,33.37
2022-12-01T11:51:37.710Z,34.53
2022-12-01T11:54:07.235Z,35.10
2022-12-01T11:56:35.731Z,34.63
2022-12-01T11:59:07.418Z,33.87
2022-12-01T12:01:38.092Z,34.73
2022-12-01T12:04:11.565Z,33.67
2022-12-01T12:06:44.259Z,31.93
2022-12-01T12:09:26.010Z,31.87
2022-12-01T12:11:56.062Z,31.13
2022-12-01T12:14:27.670Z,31.77
2022-12-01T12:17:01.102Z,29.70
2022-12-01T12:20:06.278Z,30.27
2022-12-01T12:22:26.829Z,30.93
2022-12-01T12:25:02.164Z,29.70
2022-12-01T12:27:34.182Z,29.33
2022-12-01T12:30:06.370Z,28.67
2022-12-01T12:32:39.667Z,27.53
2022-12-01T12:35:17.215Z,26.77
2022-12-01T12:37:46.803Z,27.20
2022-12-01T12:40:24.033Z,26.90
2022-12-01T12:42:54.975Z,26.23
2022-12-01T12:45:25.555Z,24.17
2022-12-01T12:48:02.260Z,25.40
2022-12-01T12:50:36.160Z,26.50
2022-12-01T12:53:06.806Z,27.33
2022-12-01T12:55:37.233Z,25.77
2022-12-01T12:58:11.033Z,25.50
2022-12-01T13:00:41.414Z,24.60
2022-12-01T13:03:12.732Z,25.43
2022-12-01T13:05:43.792Z,25.40
2022-12-01T13:08:13.600Z,24.73
2022-12-01T13:10:44.504Z,24.90
2022-12-01T13:13:20.597Z,23.90
2022-12-01T13:15:49.595Z,22.87
2022-12-01T13:18:21.220Z,23.53
2022-12-01T13:20:51.354Z,23.17
2022-12-01T13:23:21.267Z,21.23
2022-12-01T13:25:54.625Z,22.60
2022-12-01T13:28:24.173Z,22.03
2022-12-01T13:31:02.735Z,21.70
2022-12-01T13:33:31.539Z,20.93
2022-12-01T13:36:38.167Z,21.07
2022-12-01T13:38:54.922Z,21.37
2022-12-01T13:41:25.257Z,21.97
2022-12-01T13:43:55.676Z,23.07
2022-12-01T13:46:24.931Z,21.67
2022-12-01T13:48:54.170Z,24.20
2022-12-01T13:51:24.282Z,22.20
2022-12-01T13:54:15.235Z,23.93
2022-12-01T13:56:47.881Z,23.23
2022-12-01T13:59:35.107Z,24.73
2022-12-01T14:02:16.256Z,22.37
2022-12-01T14:04:44.971Z,23.13
2022-12-01T14:07:31.051Z,23.40
2022-12-01T14:10:09.065Z,22.37
2022-12-01T14:12:49.030Z,21.77
2022-12-01T14:15:43.329Z,21.50
2022-12-01T14:18:31.310Z,22.20
2022-12-01T14:21:04.897Z,21.70
2022-12-01T14:23:42.778Z,20.40
2022-12-01T14:26:16.881Z,21.13
2022-12-01T14:29:04.038Z,19.37
2022-12-01T14:31:49.986Z,18.47
2022-12-01T14:34:20.064Z,19.27
2022-12-01T14:36:51.941Z,19.03
2022-12-01T14:39:21.410Z,17.90
2022-12-01T14:41:52.147Z,17.50
2022-12-01T14:44:24.079Z,17.67
2022-12-01T14:46:54.000Z,17.70
2022-12-01T14:49:27.797Z,17.83
2022-12-01T14:52:02.553Z,17.97
2022-12-01T14:54:32.161Z,17.07
2022-12-01T14:57:06.855Z,16.73
2022-12-01T14:59:36.722Z,16.73
2022-12-01T15:02:09.276Z,16.83
2022-12-01T15:04:38.255Z,16.33
2022-12-01T15:07:06.680Z,16.53
2022-12-01T15:09:45.907Z,16.93
2022-12-01T15:12:28.587Z,16.47
2022-12-01T15:14:56.998Z,17.67
2022-12-01T15:17:29.848Z,17.47
2022-12-01T15:19:58.244Z,16.67
2022-12-01T15:22:28.405Z,17.27
2022-12-01T15:24:56.766Z,16.57
2022-12-01T15:27:27.363Z,17.33
2022-12-01T15:29:55.708Z,17.20
2022-12-01T15:32:24.786Z,16.53
2022-12-01T15:34:54.099Z,17.40
2022-12-01T15:37:23.865Z,17.23
2022-12-01T15:39:53.472Z,16.67
2022-12-01T15:42:24.522Z,16.47
2022-12-01T15:45:00.789Z,16.27
2022-12-01T15:47:32.838Z,17.17
2022-12-01T15:50:01.290Z,17.57
2022-12-01T15:52:29.728Z,16.97
2022-12-01T15:54:58.202Z,16.53
2022-12-01T15:57:26.659Z,17.10
2022-12-01T15:59:55.440Z,16.30
2022-12-01T16:02:29.929Z,16.90
2022-12-01T16:05:02.025Z,17.53
2022-12-01T16:08:04.447Z,16.90
2022-12-01T16:10:28.050Z,17.80
2022-12-01T16:12:58.944Z,17.83
2022-12-01T16:15:27.420Z,17.63
2022-12-01T16:17:57.147Z,16.67
2022-12-01T16:20:26.704Z,18.47
2022-12-01T16:22:58.917Z,19.20
2022-12-01T16:25:31.758Z,18.80
2022-12-01T16:28:00.318Z,18.93
2022-12-01T16:30:30.242Z,18.50
2022-12-01T16:33:06.283Z,18.43
2022-12-01T16:35:34.933Z,18.20
2022-12-01T16:38:03.410Z,18.40
2022-12-01T16:40:31.869Z,17.67
2022-12-01T16:43:00.248Z,17.80
2022-12-01T16:45:28.740Z,18.43
2022-12-01T16:47:57.180Z,19.43
2022-12-01T16:50:26.981Z,17.73
2022-12-01T16:52:55.378Z,18.90
2022-12-01T16:55:28.879Z,18.27
2022-12-01T16:57:57.335Z,18.70
2022-12-01T17:00:29.739Z,18.37
2022-12-01T17:02:58.625Z,19.67
2022-12-01T17:05:28.528Z,18.37
2022-12-01T17:07:57.119Z,17.93
2022-12-01T17:10:25.586Z,19.53
2022-12-01T17:12:54.128Z,19.27
2022-12-01T17:15:22.569Z,20.17
2022-12-01T17:17:51.420Z,20.03
2022-12-01T17:20:19.975Z,19.63
2022-12-01T17:22:49.825Z,19.77
2022-12-01T17:25:18.290Z,19.60
2022-12-01T17:27:46.869Z,19.23
2022-12-01T17:30:15.510Z,20.00
2022-12-01T17:32:43.862Z,19.57
2022-12-01T17:35:12.882Z,20.70
2022-12-01T17:37:41.244Z,18.80
2022-12-01T17:40:13.915Z,19.53
2022-12-01T17:42:48.558Z,20.47
2022-12-01T17:45:18.772Z,21.53
2022-12-01T17:47:47.174Z,20.80
2022-12-01T17:50:15.877Z,21.80
2022-12-01T17:52:44.511Z,22.47
2022-12-01T17:55:14.829Z,22.07
2022-12-01T17:57:43.528Z,22.40
2022-12-01T18:00:12.807Z,23.63
2022-12-01T18:02:41.470Z,23.00
2022-12-01T18:05:12.074Z,23.37
2022-12-01T18:07:41.434Z,23.73
2022-12-01T18:10:10.644Z,20.97
2022-12-01T18:12:40.580Z,20.90
2022-12-01T18:15:09.551Z,21.93
2022-12-01T18:17:38.111Z,22.33
2022-12-01T18:20:06.912Z,22.77
2022-12-01T18:22:35.589Z,23.43
2022-12-01T18:25:04.132Z,22.63
2022-12-01T18:27:32.797Z,23.73
2022-12-01T18:30:02.665Z,22.03
2022-12-01T18:32:31.003Z,23.20
2022-12-01T18:34:59.528Z,24.00
2022-12-01T18:37:28.100Z,22.80
2022-12-01T18:39:56.771Z,23.07
2022-12-01T18:42:25.252Z,27.43
2022-12-01T18:44:53.910Z,29.20
2022-12-01T18:47:23.772Z,32.27
2022-12-01T18:49:55.387Z,34.60
2022-12-01T18:52:23.866Z,31.63
2022-12-01T18:54:53.242Z,30.23
2022-12-01T18:57:21.620Z,26.83
2022-12-01T18:59:50.770Z,25.83
2022-12-01T19:02:37.571Z,25.37
2022-12-01T19:05:31.114Z,25.20
2022-12-01T19:11:06.162Z,26.13
2022-12-01T19:13:35.291Z,28.23
2022-12-01T19:16:07.145Z,27.60
2022-12-01T19:18:44.747Z,27.13
2022-12-01T19:21:15.363Z,25.23
2022-12-01T19:23:43.837Z,26.03
2022-12-01T19:26:14.793Z,24.87
2022-12-01T19:28:45.587Z,22.73
2022-12-01T19:31:14.725Z,23.00
2022-12-01T19:33:43.229Z,23.57
2022-12-01T19:36:12.362Z,23.10
2022-12-01T19:38:42.318Z,23.00
2022-12-01T19:41:29.660Z,23.37
2022-12-01T19:44:03.983Z,22.40
2022-12-01T19:46:32.551Z,23.27
2022-12-01T19:49:01.728Z,22.37
2022-12-01T19:51:48.549Z,24.43
2022-12-01T19:57:10.597Z,23.97
2022-12-01T19:59:39.218Z,25.60
2022-12-01T20:02:08.051Z,25.47
2022-12-01T20:04:48.569Z,26.37
2022-12-01T20:07:21.441Z,24.17
2022-12-01T20:09:59.166Z,24.13
2022-12-01T20:12:28.828Z,23.97
2022-12-01T20:14:58.022Z,22.90
2022-12-01T20:17:26.742Z,22.83
2022-12-01T20:19:55.199Z,22.50
2022-12-01T20:22:30.229Z,23.63
2022-12-01T20:25:08.057Z,22.63
2022-12-01T20:27:39.811Z,22.93
2022-12-01T20:33:05.376Z,21.43
2022-12-01T20:36:15.081Z,21.03
2022-12-01T20:38:56.128Z,20.80
2022-12-01T20:41:35.545Z,21.53
2022-12-01T20:44:09.351Z,22.20
2022-12-01T20:46:50.481Z,22.93
2022-12-01T20:49:20.265Z,23.67
2022-12-01T20:55:24.409Z,21.77
2022-12-01T20:58:00.373Z,22.20
2022-12-01T21:03:47.487Z,21.17
2022-12-01T21:06:21.894Z,21.90
2022-12-01T21:09:10.295Z,21.73
2022-12-01T21:12:10.322Z,21.87
2022-12-01T21:14:42.847Z,20.90
2022-12-01T21:17:14.861Z,22.03
2022-12-01T21:19:52.559Z,21.70
2022-12-01T21:22:28.587Z,21.80
2022-12-01T21:25:06.888Z,20.40
2022-12-01T21:27:35.375Z,20.60
2022-12-01T21:30:05.203Z,20.03
2022-12-01T21:32:44.159Z,21.23
2022-12-01T21:35:17.815Z,21.10
2022-12-01T21:37:47.048Z,19.87
2022-12-01T21:40:19.311Z,22.10
2022-12-01T21:42:48.761Z,20.77
2022-12-01T21:45:24.553Z,21.80
2022-12-01T21:47:53.098Z,20.67
2022-12-01T21:50:28.072Z,21.43
2022-12-01T21:53:02.313Z,20.50
2022-12-01T21:55:38.868Z,21.27
2022-12-01T21:58:36.491Z,21.50
2022-12-01T22:01:11.480Z,21.93
2022-12-01T22:03:40.510Z,20.57
2022-12-01T22:06:29.458Z,22.30
2022-12-01T22:09:00.139Z,21.23
2022-12-01T22:11:32.937Z,21.07
2022-12-01T22:14:04.295Z,22.77
2022-12-01T22:16:35.524Z,20.67
2022-12-01T22:19:04.644Z,21.83
2022-12-01T22:21:37.098Z,21.43
2022-12-01T22:24:23.546Z,19.97
2022-12-01T22:26:53.201Z,20.07
2022-12-01T22:29:27.604Z,19.93
2022-12-01T22:32:01.860Z,20.27
2022-12-01T22:34:30.233Z,20.20
2022-12-01T22:36:58.611Z,21.43
2022-12-01T22:39:27.840Z,21.50
2022-12-01T22:41:57.423Z,20.20
2022-12-01T22:44:26.996Z,20.50
2022-12-01T22:46:55.966Z,20.23
2022-12-01T22:49:28.787Z,20.43
2022-12-01T22:52:08.873Z,20.80
2022-12-01T22:54:40.315Z,20.93
2022-12-01T22:57:15.082Z,21.33
2022-12-01T22:59:44.028Z,22.13
2022-12-01T23:02:21.000Z,21.23
2022-12-01T23:04:53.086Z,20.43
2022-12-01T23:07:28.215Z,22.03
2022-12-01T23:09:58.209Z,20.03
2022-12-01T23:12:28.847Z,21.43
2022-12-01T23:14:57.943Z,21.23
2022-12-01T23:17:29.294Z,21.20
2022-12-01T23:20:06.725Z,21.20
2022-12-01T23:22:35.347Z,22.10
2022-12-01T23:25:04.322Z,21.27
2022-12-01T23:27:32.753Z,21.37
2022-12-01T23:30:01.343Z,21.57
2022-12-01T23:32:29.907Z,23.83
2022-12-01T23:35:00.713Z,23.03
2022-12-01T23:37:34.140Z,23.07
2022-12-01T23:40:02.650Z,23.33
2022-12-01T23:42:31.222Z,24.80
2022-12-01T23:45:00.097Z,24.23
2022-12-01T23:47:29.156Z,25.97
2022-12-01T23:50:01.882Z,24.67
2022-12-01T23:52:36.422Z,24.97
2022-12-01T23:55:06.629Z,25.30
2022-12-01T23:57:35.020Z,26.00
